Time;durP1;ratioP1;P1;durP2;ratioP2;P2;SDS_P1;SDS_P2;PMS_P1;PMS_P2;Temp;Humidity;BMP_temperature;BMP_pressure;BME280_temperature;BME280_humidity;BME280_pressure;Samples;Min_cycle;Max_cycle;Signal;HPM_P1;HPM_P2
2021/09/09 00:02:06;;;;;;;21.97;15.43;;;;;;;10.60;79.32;100344.30;1791804;79;21614;-71
2021/09/09 00:04:34;;;;;;;23.75;15.32;;;;;;;10.66;79.11;100345.19;1780115;80;21853;-71
2021/09/09 00:07:01;;;;;;;;;;;;;;;10.69;78.87;100347.39;1780078;79;21561;-71
2021/09/09 00:09:28;;;;;;;20.25;14.25;;;;;;;10.67;78.76;100342.73;1811178;79;20141;-71
2021/09/09 00:11:54;;;;;;;22.45;16.48;;;;;;;10.53;79.07;100344.22;1814651;79;21013;-71
2021/09/09 00:14:22;;;;;;;23.50;15.72;;;;;;;10.45;79.31;100340.08;1797494;79;20993;-71
2021/09/09 00:16:49;;;;;;;21.20;15.45;;;;;;;10.47;79.43;100340.09;1806457;79;21029;-71
2021/09/09 00:19:17;;;;;;;19.92;14.87;;;;;;;10.54;79.32;100344.51;1796240;79;21475;-71
2021/09/09 00:21:44;;;;;;;22.50;14.75;;;;;;;10.58;79.17;100343.75;1792548;79;21508;-71
2021/09/09 00:24:11;;;;;;;22.20;16.15;;;;;;;10.58;79.11;100344.28;1798894;79;20977;-71
2021/09/09 00:26:38;;;;;;;22.32;16.73;;;;;;;10.54;79.36;100350.78;1801575;79;21603;-71
2021/09/09 00:29:05;;;;;;;23.42;16.23;;;;;;;10.48;79.55;100345.01;1794958;79;21511;-71
2021/09/09 00:31:31;;;;;;;23.67;15.45;;;;;;;10.47;79.65;100349.63;1807233;79;21447;-71
2021/09/09 00:33:59;;;;;;;22.35;15.32;;;;;;;10.55;79.58;100352.97;1794782;79;21479;-72
2021/09/09 00:36:26;;;;;;;23.65;15.40;;;;;;;10.56;79.43;100345.89;1781869;79;21005;-71
2021/09/09 00:38:53;;;;;;;19.60;15.20;;;;;;;10.55;79.44;100354.33;1794399;79;21073;-71
2021/09/09 00:41:23;;;;;;;24.20;17.25;;;;;;;10.50;79.59;100346.92;1796922;79;21046;-71
2021/09/09 00:43:49;;;;;;;23.22;15.60;;;;;;;10.43;79.76;100347.12;1812811;79;20986;-71
2021/09/09 00:46:23;;;;;;;22.82;15.08;;;;;;;10.41;79.78;100353.38;1804694;79;21033;-71
2021/09/09 00:48:50;;;;;;;19.40;14.50;;;;;;;10.44;79.73;100352.04;1799878;79;21523;-71
2021/09/09 00:51:16;;;;;;;20.05;15.20;;;;;;;10.45;79.66;100343.59;1796780;79;21053;-71
2021/09/09 00:53:43;;;;;;;22.85;15.93;;;;;;;10.43;79.60;100349.84;1797335;79;21088;-70
2021/09/09 00:56:11;;;;;;;25.27;16.02;;;;;;;10.37;79.75;100354.14;1804667;79;21056;-70
2021/09/09 00:58:41;;;;;;;23.95;14.95;;;;;;;10.35;79.79;100353.02;1798978;79;21548;-71
2021/09/09 01:01:06;;;;;;;21.45;14.87;;;;;;;10.39;79.67;100350.61;1787054;79;21029;-71
2021/09/09 01:03:32;;;;;;;;;;;;;;;10.41;79.59;100349.30;1799025;79;20982;-71
2021/09/09 01:05:59;;;;;;;24.02;16.40;;;;;;;10.40;79.58;100351.73;1817583;79;20105;-71
2021/09/09 01:08:26;;;;;;;24.82;16.23;;;;;;;10.22;80.11;100348.52;1805406;79;21069;-71
2021/09/09 01:10:52;;;;;;;23.15;15.98;;;;;;;10.13;80.47;100351.38;1796731;79;21135;-70
2021/09/09 01:13:19;;;;;;;22.25;14.95;;;;;;;10.12;80.55;100349.19;1789910;79;21112;-70
2021/09/09 01:17:03;;;;;;;22.57;16.77;;;;;;;10.28;80.30;100342.88;1784798;79;22922;-71
2021/09/09 01:19:32;;;;;;;23.95;17.02;;;;;;;10.20;80.44;100345.23;1723455;82;21054;-71
2021/09/09 01:21:58;;;;;;;22.37;16.35;;;;;;;10.18;80.62;100346.02;1730882;82;21615;-71
2021/09/09 01:24:25;;;;;;;22.15;15.58;;;;;;;10.23;80.66;100352.89;1729713;82;21306;-72
2021/09/09 01:27:00;;;;;;;22.95;15.72;;;;;;;10.32;80.44;100346.73;1729917;81;21159;-71
2021/09/09 01:29:37;;;;;;;24.43;17.50;;;;;;;10.35;80.24;100351.66;1699737;82;21498;-71
2021/09/09 01:32:05;;;;;;;24.50;17.80;;;;;;;10.25;80.31;100349.36;1749574;82;21075;-71
2021/09/09 01:34:31;;;;;;;23.60;16.60;;;;;;;10.17;80.63;100346.55;1690289;83;20995;-71
2021/09/09 01:36:58;;;;;;;23.83;16.30;;;;;;;10.17;80.69;100349.27;1704491;82;21465;-71
2021/09/09 01:39:25;;;;;;;21.62;16.27;;;;;;;10.23;80.36;100346.91;1736586;81;21046;-71
2021/09/09 01:41:54;;;;;;;23.87;16.42;;;;;;;10.22;80.23;100342.53;1723514;82;21046;-71
2021/09/09 01:44:21;;;;;;;25.52;16.15;;;;;;;10.16;80.35;100343.56;1748758;82;21501;-71
2021/09/09 01:46:48;;;;;;;22.67;16.52;;;;;;;10.10;80.54;100337.73;1733209;82;21616;-71
2021/09/09 01:49:15;;;;;;;23.57;16.48;;;;;;;10.11;80.54;100342.63;1749334;82;21014;-70
2021/09/09 01:51:42;;;;;;;23.30;16.30;;;;;;;10.18;80.24;100346.02;1747381;82;21030;-70
2021/09/09 01:54:08;;;;;;;24.52;16.97;;;;;;;10.18;80.12;100345.48;1703110;82;21015;-71
2021/09/09 01:56:35;;;;;;;23.87;16.37;;;;;;;10.12;80.33;100339.67;1744051;82;21588;-71
2021/09/09 01:59:02;;;;;;;23.92;15.78;;;;;;;10.08;80.49;100337.70;1735591;82;21486;-71
2021/09/09 02:01:28;;;;;;;22.45;16.20;;;;;;;10.07;80.47;100338.23;1690468;85;21626;-71
2021/09/09 02:03:55;;;;;;;21.45;15.90;;;;;;;10.12;80.12;100340.20;1710506;84;21054;-72
2021/09/09 02:06:21;;;;;;;24.35;17.87;;;;;;;10.08;79.99;100342.61;1708349;84;21666;-71
2021/09/09 02:08:48;;;;;;;24.12;17.17;;;;;;;10.00;80.14;100337.61;1705056;84;21544;-72
2021/09/09 02:11:14;;;;;;;22.07;15.80;;;;;;;9.92;80.37;100340.76;1710409;83;21758;-71
2021/09/09 02:13:41;;;;;;;23.65;15.53;;;;;;;9.91;80.45;100344.05;1692887;84;21050;-71
2021/09/09 02:16:08;;;;;;;23.73;16.95;;;;;;;9.95;80.23;100338.92;1693476;84;21081;-71
2021/09/09 02:18:34;;;;;;;23.47;17.20;;;;;;;9.96;80.22;100336.47;1686542;84;21777;-71
2021/09/09 02:21:02;;;;;;;25.52;18.73;;;;;;;9.92;80.49;100340.23;1678776;84;21620;-71
2021/09/09 02:23:29;;;;;;;24.15;17.07;;;;;;;9.90;80.73;100338.84;1680136;85;21536;-70
2021/09/09 02:25:55;;;;;;;24.12;16.35;;;;;;;9.91;80.68;100338.61;1672085;85;21062;-71
2021/09/09 02:28:21;;;;;;;25.23;16.93;;;;;;;9.96;80.27;100340.02;1687004;84;21058;-71
2021/09/09 02:30:48;;;;;;;27.52;17.92;;;;;;;9.92;80.09;100334.78;1701521;84;21054;-72
2021/09/09 02:33:14;;;;;;;26.33;17.92;;;;;;;9.82;80.29;100332.48;1687304;84;21022;-72
2021/09/09 02:35:40;;;;;;;24.47;16.37;;;;;;;9.72;80.51;100337.78;1697178;84;21062;-72
2021/09/09 02:38:07;;;;;;;23.98;16.25;;;;;;;9.72;80.51;100339.97;1697652;84;20999;-72
2021/09/09 02:40:33;;;;;;;24.57;17.30;;;;;;;9.78;80.22;100334.05;1708777;84;21065;-72
2021/09/09 02:43:00;;;;;;;22.95;17.52;;;;;;;9.77;80.16;100333.78;1686201;84;21039;-71
2021/09/09 02:45:27;;;;;;;24.32;18.07;;;;;;;9.69;80.33;100335.58;1703298;84;21781;-71
2021/09/09 02:47:54;;;;;;;25.72;18.32;;;;;;;9.61;80.56;100339.54;1671238;85;21137;-72
2021/09/09 02:50:20;;;;;;;25.10;17.12;;;;;;;9.62;80.64;100339.84;1703473;84;21511;-71
2021/09/09 02:52:46;;;;;;;24.65;17.10;;;;;;;9.70;80.53;100339.41;1675887;84;21154;-71
2021/09/09 02:55:12;;;;;;;24.47;18.07;;;;;;;9.70;80.57;100339.41;1662744;85;21081;-71
2021/09/09 02:57:39;;;;;;;;;;;;;;;9.66;80.80;100338.27;1666293;85;21049;-71
2021/09/09 03:00:07;;;;;;;26.15;18.20;;;;;;;9.60;81.07;100331.09;1693792;84;20479;-72
2021/09/09 03:02:33;;;;;;;24.98;17.48;;;;;;;9.47;81.41;100332.29;1679878;84;21122;-72
2021/09/09 03:05:00;;;;;;;24.40;16.70;;;;;;;9.48;81.46;100331.75;1674081;84;21058;-71
2021/09/09 03:07:28;;;;;;;26.33;17.57;;;;;;;9.56;81.33;100338.66;1695591;84;21134;-71
2021/09/09 03:09:55;;;;;;;25.05;17.35;;;;;;;9.59;81.30;100329.47;1681433;84;21487;-72
2021/09/09 03:12:21;;;;;;;24.82;17.42;;;;;;;9.59;81.34;100330.83;1683752;84;21096;-71
2021/09/09 03:14:48;;;;;;;24.25;17.23;;;;;;;9.54;81.57;100339.43;1690835;84;21519;-71
2021/09/09 03:17:16;;;;;;;23.52;16.75;;;;;;;9.48;81.81;100327.15;1678411;84;21143;-72
2021/09/09 03:19:43;;;;;;;24.18;17.15;;;;;;;9.53;81.79;100329.66;1676045;85;20983;-70
2021/09/09 03:22:10;;;;;;;23.80;16.95;;;;;;;9.62;81.56;100326.78;1673911;85;21111;-70
2021/09/09 03:24:37;;;;;;;27.22;17.80;;;;;;;9.63;81.50;100336.59;1686098;85;21573;-72
2021/09/09 03:27:04;;;;;;;25.88;18.42;;;;;;;9.60;81.73;100327.02;1689223;85;21071;-71
2021/09/09 03:29:32;;;;;;;24.72;17.10;;;;;;;9.54;81.99;100338.90;1675547;85;21043;-71
2021/09/09 03:31:58;;;;;;;24.98;16.87;;;;;;;9.57;82.03;100336.20;1675709;85;21075;-71
2021/09/09 03:34:25;;;;;;;24.50;16.75;;;;;;;9.65;81.80;100332.53;1682093;85;21037;-71
2021/09/09 03:36:51;;;;;;;24.20;18.02;;;;;;;9.67;81.73;100335.02;1669540;85;21067;-72
2021/09/09 03:39:17;;;;;;;;;;;;;;;9.64;81.84;100335.48;1686345;85;21251;-71
2021/09/09 03:41:44;;;;;;;26.35;18.50;;;;;;;9.61;82.02;100336.00;1673757;85;20460;-69
2021/09/09 03:44:10;;;;;;;25.00;17.95;;;;;;;;;;1711029;82;21019;-70
2021/09/09 03:46:36;;;;;;;24.75;18.23;;;;;;;9.61;82.33;100342.80;1717044;82;21083;-70
2021/09/09 03:49:03;;;;;;;22.60;17.20;;;;;;;9.70;82.15;100348.10;1718070;82;21023;-70
2021/09/09 03:51:31;;;;;;;25.25;18.77;;;;;;;9.74;82.12;100343.25;1711685;82;21067;-69
2021/09/09 03:53:57;;;;;;;23.12;18.60;;;;;;;9.75;82.37;100353.06;1734915;82;21016;-70
2021/09/09 03:56:23;;;;;;;26.50;18.32;;;;;;;9.76;82.64;100353.88;1724757;82;21056;-69
2021/09/09 03:58:50;;;;;;;23.12;16.67;;;;;;;9.85;82.62;100356.44;1718481;82;21011;-70
2021/09/09 04:01:16;;;;;;;26.17;18.42;;;;;;;9.97;82.32;100354.44;1726396;82;21003;-69
2021/09/09 04:03:46;;;;;;;23.73;17.82;;;;;;;10.03;82.17;100355.31;1736532;82;20976;-70
2021/09/09 04:06:13;;;;;;;28.10;19.50;;;;;;;10.04;82.25;100356.43;1722879;82;21040;-69
2021/09/09 04:08:40;;;;;;;28.83;17.90;;;;;;;10.07;82.41;100352.37;1720501;82;21003;-70
2021/09/09 04:11:06;;;;;;;23.62;17.40;;;;;;;10.14;82.26;100353.00;1722824;82;21071;-70
2021/09/09 04:13:32;;;;;;;24.20;17.30;;;;;;;10.28;81.94;100350.20;1729690;82;21066;-70
2021/09/09 04:15:58;;;;;;;25.40;17.87;;;;;;;10.33;81.83;100350.28;1717588;82;21069;-70
2021/09/09 04:18:26;;;;;;;25.00;19.23;;;;;;;10.36;82.04;100352.48;1742749;82;21039;-70
2021/09/09 04:20:53;;;;;;;23.02;17.73;;;;;;;10.38;82.25;100358.52;1728466;82;21193;-70
2021/09/09 04:23:19;;;;;;;26.65;18.17;;;;;;;10.53;82.31;100357.29;1729149;82;21059;-71
2021/09/09 04:25:47;;;;;;;21.95;16.85;;;;;;;10.70;81.97;100355.28;1727899;82;21008;-70
2021/09/09 04:28:14;;;;;;;24.67;18.25;;;;;;;10.79;81.85;100355.12;1741822;82;21438;-70
2021/09/09 04:30:41;;;;;;;23.12;17.15;;;;;;;10.84;81.97;100357.08;1732491;82;21529;-69
2021/09/09 04:33:08;;;;;;;26.25;17.27;;;;;;;10.86;81.98;100353.54;1752483;82;21426;-70
2021/09/09 04:35:35;;;;;;;27.22;17.62;;;;;;;10.95;81.91;100350.61;1731304;82;21512;-70
2021/09/09 04:38:01;;;;;;;25.90;17.75;;;;;;;11.14;81.60;100353.77;1740394;82;21082;-69
2021/09/09 04:40:29;;;;;;;;;;;;;;;11.24;81.42;100357.40;1749677;82;21051;-69
2021/09/09 04:42:57;;;;;;;25.65;18.98;;;;;;;11.28;81.48;100354.97;1746262;82;20107;-69
2021/09/09 04:45:25;;;;;;;26.30;18.42;;;;;;;11.24;81.70;100359.30;1739304;82;21615;-68
2021/09/09 04:47:52;;;;;;;25.25;17.62;;;;;;;11.36;81.54;100351.77;1727781;82;21550;-69
2021/09/09 04:50:20;;;;;;;24.05;18.35;;;;;;;11.53;81.12;100346.15;1747085;82;21019;-70
2021/09/09 04:52:48;;;;;;;28.57;19.35;;;;;;;11.62;80.98;100352.77;1750580;82;21110;-72
2021/09/09 04:55:14;;;;;;;28.15;19.15;;;;;;;11.67;81.06;100348.15;1736459;82;21026;-71
2021/09/09 04:57:40;;;;;;;26.73;18.45;;;;;;;11.74;81.13;100344.67;1740319;82;21561;-70
2021/09/09 05:00:10;;;;;;;24.20;17.92;;;;;;;11.88;80.92;100343.11;1742060;82;21062;-71
2021/09/09 05:02:36;;;;;;;25.40;18.05;;;;;;;12.08;80.49;100339.64;1737720;82;21576;-71
2021/09/09 05:05:02;;;;;;;;;;;;;;;12.24;80.33;100345.45;1713234;82;21532;-71
2021/09/09 05:07:30;;;;;;;;;;;;;;;12.37;80.35;100340.84;1722445;82;20110;-71
2021/09/09 05:09:56;;;;;;;24.43;17.35;;;;;;;12.48;80.46;100339.78;1750882;82;20114;-71
2021/09/09 05:12:22;;;;;;;;;;;;;;;12.66;80.57;100337.62;1754882;82;21637;-71
2021/09/09 05:14:49;;;;;;;23.15;16.50;;;;;;;13.05;80.16;100343.39;1727246;82;20140;-71
2021/09/09 05:17:15;;;;;;;23.00;16.82;;;;;;;13.50;79.40;100334.38;1748447;81;21047;-71
2021/09/09 05:19:42;;;;;;;23.80;17.77;;;;;;;13.88;78.77;100337.30;1738913;82;21042;-71
2021/09/09 05:22:10;;;;;;;21.35;17.20;;;;;;;14.27;78.31;100340.69;1748028;82;21023;-71
2021/09/09 05:24:37;;;;;;;23.30;16.87;;;;;;;14.65;77.13;100336.38;1726148;82;21015;-71
2021/09/09 05:27:04;;;;;;;24.65;17.80;;;;;;;15.03;76.07;100341.03;1742886;82;21018;-71
2021/09/09 05:29:30;;;;;;;27.00;18.80;;;;;;;15.41;75.66;100338.77;1750047;82;21034;-72
2021/09/09 05:31:57;;;;;;;23.67;17.77;;;;;;;15.82;74.39;100339.77;1731434;82;21039;-70
2021/09/09 05:34:23;;;;;;;23.00;18.17;;;;;;;16.17;73.38;100337.97;1738930;82;21375;-71
2021/09/09 05:36:50;;;;;;;23.47;17.05;;;;;;;16.49;71.76;100335.07;1736754;82;21593;-71
2021/09/09 05:39:16;;;;;;;26.77;17.92;;;;;;;16.80;70.91;100331.61;1733621;82;21517;-71
2021/09/09 05:41:42;;;;;;;;;;;;;;;17.06;69.11;100334.78;1740780;82;21640;-72
2021/09/09 05:44:09;;;;;;;21.62;15.93;;;;;;;17.31;68.64;100334.91;1735486;82;20136;-72
2021/09/09 05:46:36;;;;;;;21.60;15.75;;;;;;;17.48;67.75;100334.33;1733387;82;21118;-71
2021/09/09 05:49:04;;;;;;;21.50;15.45;;;;;;;17.77;66.77;100332.17;1740797;82;21066;-71
2021/09/09 05:51:32;;;;;;;21.68;15.78;;;;;;;18.01;65.45;100327.27;1744873;82;21011;-71
2021/09/09 05:53:59;;;;;;;19.95;14.58;;;;;;;18.18;64.40;100328.84;1736394;82;21588;-70
2021/09/09 05:56:26;;;;;;;20.20;15.25;;;;;;;18.43;63.98;100326.66;1744839;82;21556;-71
2021/09/09 05:58:54;;;;;;;19.73;14.73;;;;;;;18.69;62.71;100323.62;1747634;82;21601;-72
2021/09/09 06:01:20;;;;;;;18.02;14.83;;;;;;;18.89;62.00;100328.65;1731664;82;21565;-71
2021/09/09 06:03:47;;;;;;;20.23;14.95;;;;;;;19.09;60.98;100324.59;1730977;82;21038;-71
2021/09/09 06:06:16;;;;;;;19.35;15.30;;;;;;;19.29;60.26;100325.45;1735726;82;21094;-72
2021/09/09 06:08:42;;;;;;;20.20;14.30;;;;;;;19.45;59.82;100323.94;1747660;82;21548;-72
2021/09/09 06:11:09;;;;;;;18.98;13.83;;;;;;;19.64;59.14;100327.30;1742065;82;21019;-71
2021/09/09 06:13:36;;;;;;;19.50;13.28;;;;;;;19.91;58.64;100319.36;1752577;82;21011;-71
2021/09/09 06:16:02;;;;;;;20.05;13.80;;;;;;;20.06;57.46;100318.94;1727364;82;21110;-71
2021/09/09 06:18:29;;;;;;;18.17;12.98;;;;;;;20.19;57.23;100320.75;1730339;82;21031;-72
2021/09/09 06:20:55;;;;;;;19.55;13.45;;;;;;;20.41;56.32;100324.00;1736440;82;21114;-71
2021/09/09 06:23:21;;;;;;;17.37;11.33;;;;;;;20.58;55.84;100318.49;1737697;82;21012;-72
2021/09/09 06:25:48;;;;;;;15.68;11.95;;;;;;;20.69;54.78;100317.04;1727032;82;21016;-72
2021/09/09 06:28:14;;;;;;;14.38;10.43;;;;;;;20.72;54.26;100323.90;1736105;82;21023;-72
2021/09/09 06:30:40;;;;;;;17.48;10.55;;;;;;;20.68;53.34;100325.68;1731623;82;21003;-71
2021/09/09 06:33:06;;;;;;;13.60;9.70;;;;;;;20.72;54.27;100322.52;1726827;82;21031;-71
2021/09/09 06:35:33;;;;;;;14.75;9.45;;;;;;;20.87;52.98;100321.22;1710173;82;21043;-71
2021/09/09 06:37:59;;;;;;;16.80;9.25;;;;;;;20.96;52.23;100315.91;1728052;82;21082;-72
2021/09/09 06:40:26;;;;;;;14.33;9.90;;;;;;;20.93;51.00;100322.11;1712381;82;21569;-72
2021/09/09 06:42:52;;;;;;;11.73;9.18;;;;;;;20.72;50.87;100319.75;1695201;84;21598;-71
2021/09/09 06:45:18;;;;;;;13.45;9.95;;;;;;;20.59;52.02;100322.89;1722735;82;21605;-72
2021/09/09 06:47:45;;;;;;;12.90;9.18;;;;;;;20.58;51.81;100321.26;1730763;82;21526;-72
2021/09/09 06:50:12;;;;;;;12.55;9.38;;;;;;;20.66;51.35;100325.17;1723336;82;20984;-71
2021/09/09 06:52:39;;;;;;;14.00;9.60;;;;;;;20.67;52.51;100330.39;1736802;82;21008;-72
2021/09/09 06:55:06;;;;;;;11.55;8.85;;;;;;;20.85;51.74;100333.98;1738022;82;21027;-71
2021/09/09 06:57:32;;;;;;;12.37;9.88;;;;;;;21.06;51.94;100329.41;1716753;82;21558;-71
2021/09/09 06:59:59;;;;;;;12.75;9.68;;;;;;;21.40;51.30;100326.39;1726949;81;21533;-71
2021/09/09 07:02:25;;;;;;;13.75;9.75;;;;;;;21.71;51.29;100336.64;1666268;84;21114;-72
2021/09/09 07:04:52;;;;;;;14.95;10.20;;;;;;;22.04;49.76;100336.84;1736722;82;21047;-73
2021/09/09 07:07:18;;;;;;;13.60;9.65;;;;;;;22.24;48.78;100330.56;1725170;82;21019;-72
2021/09/09 07:09:45;;;;;;;12.15;9.20;;;;;;;22.30;49.04;100337.53;1727189;82;21059;-72
2021/09/09 07:12:12;;;;;;;12.93;8.78;;;;;;;22.32;48.53;100333.27;1726497;82;21051;-72
2021/09/09 07:14:38;;;;;;;12.82;7.40;;;;;;;22.41;48.07;100336.57;1727792;82;21429;-72
2021/09/09 07:17:04;;;;;;;11.80;8.55;;;;;;;22.44;47.84;100338.67;1722132;82;21074;-72
2021/09/09 07:19:32;;;;;;;11.05;8.28;;;;;;;22.43;46.89;100333.69;1747981;82;21003;-72
2021/09/09 07:21:58;;;;;;;12.43;8.50;;;;;;;22.35;46.56;100335.15;1725411;82;21576;-71
2021/09/09 07:24:25;;;;;;;13.53;7.92;;;;;;;22.30;47.29;100339.73;1734768;82;21528;-72
2021/09/09 07:26:52;;;;;;;11.93;8.38;;;;;;;22.48;47.50;100340.44;1737223;82;21054;-72
2021/09/09 07:29:18;;;;;;;10.18;7.95;;;;;;;22.65;46.73;100336.73;1741196;82;21038;-72
2021/09/09 07:31:45;;;;;;;11.65;8.53;;;;;;;22.81;46.75;100344.13;1735425;82;21123;-72
2021/09/09 07:34:11;;;;;;;12.23;8.98;;;;;;;22.83;45.40;100334.66;1727893;82;21097;-71
2021/09/09 07:36:39;;;;;;;14.30;9.55;;;;;;;22.76;45.53;100342.97;1752352;82;21114;-72
2021/09/09 07:39:06;;;;;;;13.25;9.08;;;;;;;22.74;44.89;100338.91;1750995;82;21042;-71
2021/09/09 07:41:32;;;;;;;12.37;9.03;;;;;;;22.67;45.76;100344.19;1750692;82;21043;-72
2021/09/09 07:43:58;;;;;;;12.70;8.93;;;;;;;22.97;46.57;100342.14;1751935;82;21058;-72
2021/09/09 07:46:26;;;;;;;14.03;8.70;;;;;;;23.36;46.26;100343.00;1747749;81;21615;-71
2021/09/09 07:48:54;;;;;;;12.40;8.68;;;;;;;23.80;45.84;100348.36;1737151;82;21007;-71
2021/09/09 07:51:22;;;;;;;11.38;8.30;;;;;;;24.30;45.08;100352.25;1723967;82;21126;-71
2021/09/09 07:53:50;;;;;;;9.23;7.30;;;;;;;24.69;43.82;100339.55;1734367;82;20955;-69
2021/09/09 07:56:16;;;;;;;12.40;7.87;;;;;;;24.86;42.31;100343.48;1747152;82;21036;-70
2021/09/09 07:58:48;;;;;;;10.55;8.15;;;;;;;24.70;42.33;100339.77;1748516;82;20991;-71
2021/09/09 08:01:11;;;;;;;11.12;8.50;;;;;;;24.55;42.33;100346.08;1724087;82;21027;-70
2021/09/09 08:03:38;;;;;;;11.50;8.40;;;;;;;24.44;41.93;100340.75;1750054;82;20976;-75
2021/09/09 08:06:05;;;;;;;10.15;7.20;;;;;;;24.39;42.31;100343.19;1706017;83;21134;-72
2021/09/09 08:08:31;;;;;;;11.28;8.30;;;;;;;24.66;43.32;100343.02;1744965;82;21508;-72
2021/09/09 08:10:58;;;;;;;11.48;7.70;;;;;;;24.91;42.01;100347.97;1731852;82;21560;-71
2021/09/09 08:13:26;;;;;;;11.63;7.83;;;;;;;25.15;42.22;100336.16;1726421;82;21521;-73
2021/09/09 08:15:53;;;;;;;9.38;7.22;;;;;;;25.44;41.82;100340.55;1752551;82;21624;-73
2021/09/09 08:18:19;;;;;;;12.15;7.35;;;;;;;25.73;41.04;100334.61;1738468;81;20988;-74
2021/09/09 08:20:46;;;;;;;11.12;7.58;;;;;;;25.93;39.90;100329.14;1716494;82;21688;-74
2021/09/09 08:23:14;;;;;;;10.08;7.70;;;;;;;26.00;39.20;100328.73;1701025;83;21045;-74
2021/09/09 08:25:41;;;;;;;9.58;7.17;;;;;;;25.92;39.93;100336.70;1712613;82;21047;-72
2021/09/09 08:28:08;;;;;;;10.82;7.53;;;;;;;26.08;39.49;100332.48;1710859;82;21075;-74
2021/09/09 08:30:34;;;;;;;9.05;7.00;;;;;;;26.25;39.15;100327.17;1723773;82;21090;-76
2021/09/09 08:33:01;;;;;;;50.65;32.98;;;;;;;26.43;37.63;100327.00;1702434;84;21537;-73
2021/09/09 08:35:27;;;;;;;35.75;26.37;;;;;;;26.47;37.99;100332.05;1712915;82;21067;-72
2021/09/09 08:37:53;;;;;;;21.77;15.13;;;;;;;26.40;38.87;100333.28;1738732;82;21115;-71
2021/09/09 08:40:24;;;;;;;10.53;7.62;;;;;;;26.53;38.82;100332.02;1737214;82;21020;-72
2021/09/09 08:42:52;;;;;;;11.38;7.55;;;;;;;26.76;39.11;100325.94;1716731;82;21032;-72
2021/09/09 08:45:18;;;;;;;10.65;7.65;;;;;;;26.97;36.77;100322.23;1729566;82;21103;-72
2021/09/09 08:47:47;;;;;;;9.60;7.33;;;;;;;26.60;37.63;100322.41;1714552;82;21482;-71
2021/09/09 08:50:13;;;;;;;11.43;7.62;;;;;;;26.33;38.07;100330.33;1738783;82;21039;-71
2021/09/09 08:52:39;;;;;;;9.30;7.37;;;;;;;26.09;38.57;100335.51;1737521;82;21011;-70
2021/09/09 08:55:08;;;;;;;11.75;7.75;;;;;;;26.09;38.22;100332.72;1723375;82;21015;-71
2021/09/09 08:57:35;;;;;;;12.43;7.62;;;;;;;26.04;39.35;100333.01;1719501;82;21044;-71
2021/09/09 09:00:03;;;;;;;10.38;7.70;;;;;;;26.27;38.53;100334.58;1736810;82;21569;-72
2021/09/09 09:02:30;;;;;;;9.65;7.50;;;;;;;26.39;39.15;100333.89;1716367;82;21083;-72
2021/09/09 09:05:08;;;;;;;9.20;6.70;;;;;;;26.49;38.35;100330.54;1724236;82;20972;-71
2021/09/09 09:07:35;;;;;;;10.78;6.67;;;;;;;26.77;37.64;100328.15;1735875;81;20992;-72
2021/09/09 09:10:06;;;;;;;8.08;6.83;;;;;;;27.01;37.54;100318.12;1727172;82;20991;-71
2021/09/09 09:12:49;;;;;;;9.35;7.20;;;;;;;27.07;36.79;100327.23;1695500;84;21593;-71
2021/09/09 09:15:21;;;;;;;9.95;7.08;;;;;;;26.71;36.70;100322.05;1707106;82;21039;-72
2021/09/09 09:18:02;;;;;;;10.35;6.95;;;;;;;26.47;37.39;100318.91;1723834;82;21554;-73
2021/09/09 09:20:50;;;;;;;11.48;7.30;;;;;;;26.39;37.84;100324.13;1726010;82;21486;-72
2021/09/09 09:23:23;;;;;;;9.95;7.20;;;;;;;26.07;38.08;100314.97;1720173;82;21625;-72
2021/09/09 09:26:02;;;;;;;10.00;6.87;;;;;;;25.86;37.88;100312.23;1720683;82;21016;-72
2021/09/09 09:28:53;;;;;;;10.50;7.28;;;;;;;25.61;38.53;100310.98;1715841;82;21023;-72
2021/09/09 09:31:30;;;;;;;9.15;6.67;;;;;;;25.56;39.42;100314.63;1716750;82;21087;-72
2021/09/09 09:34:07;;;;;;;8.00;6.40;;;;;;;25.67;39.39;100305.38;1738471;82;21470;-70
2021/09/09 09:36:40;;;;;;;10.53;7.37;;;;;;;25.67;39.19;100308.75;1735612;82;21071;-71
2021/09/09 09:39:10;;;;;;;9.68;6.87;;;;;;;25.45;39.54;100298.17;1714404;82;21046;-71
2021/09/09 09:41:38;;;;;;;9.25;6.92;;;;;;;25.43;40.92;100300.52;1721094;82;21079;-71
2021/09/09 09:44:08;;;;;;;12.43;6.60;;;;;;;25.39;39.06;100300.42;1723041;82;21467;-71
2021/09/09 09:46:39;;;;;;;8.95;7.15;;;;;;;25.31;40.14;100289.42;1719769;82;21585;-71
2021/09/09 09:49:25;;;;;;;8.08;6.50;;;;;;;25.25;40.00;100290.28;1712181;82;21039;-72
2021/09/09 09:51:54;;;;;;;9.20;7.00;;;;;;;25.18;40.09;100294.27;1720675;82;21032;-71
2021/09/09 09:54:21;;;;;;;8.08;6.80;;;;;;;25.11;39.88;100287.92;1736615;82;21643;-72
2021/09/09 09:56:48;;;;;;;9.43;6.97;;;;;;;25.11;39.72;100283.73;1738947;82;21669;-71
2021/09/09 09:59:14;;;;;;;10.08;6.90;;;;;;;25.11;39.85;100280.95;1714365;82;21613;-71
2021/09/09 10:01:42;;;;;;;11.97;7.05;;;;;;;25.15;39.55;100281.84;1721840;82;21550;-71
2021/09/09 10:04:13;;;;;;;9.33;6.53;;;;;;;25.16;39.70;100277.89;1718875;82;21019;-70
2021/09/09 10:06:41;;;;;;;8.93;7.05;;;;;;;25.12;39.18;100278.95;1718258;82;21504;-71
2021/09/09 10:09:08;;;;;;;8.53;7.00;;;;;;;24.88;39.39;100277.67;1726486;82;20988;-71
2021/09/09 10:11:36;;;;;;;11.18;7.50;;;;;;;24.66;40.25;100264.49;1711987;82;21055;-71
2021/09/09 10:14:04;;;;;;;8.78;6.97;;;;;;;24.67;40.60;100269.48;1716168;82;21011;-71
2021/09/09 10:16:38;;;;;;;9.95;7.37;;;;;;;24.69;40.49;100268.57;1726109;82;21105;-70
2021/09/09 10:19:05;;;;;;;11.53;7.22;;;;;;;24.64;40.04;100266.84;1739886;82;20999;-70
2021/09/09 10:21:44;;;;;;;9.60;7.00;;;;;;;24.65;40.31;100264.86;1707532;82;21058;-71
2021/09/09 10:24:18;;;;;;;9.58;7.08;;;;;;;24.61;40.00;100261.16;1744336;82;21477;-72
2021/09/09 10:26:48;;;;;;;11.18;7.28;;;;;;;24.48;40.99;100256.80;1742657;82;21094;-71
2021/09/09 10:30:04;;;;;;;11.10;7.45;;;;;;;24.56;40.45;100262.21;1743820;82;21003;-71
2021/09/09 10:32:35;;;;;;;11.28;6.53;;;;;;;24.61;39.81;100258.38;1734618;82;21039;-71
2021/09/09 10:35:27;;;;;;;14.20;7.30;;;;;;;24.54;40.02;100256.20;1729162;82;21486;-71
2021/09/09 10:37:56;;;;;;;8.08;6.60;;;;;;;24.55;39.44;100251.45;1732793;82;21557;-71
2021/09/09 10:40:32;;;;;;;8.70;6.20;;;;;;;24.53;39.99;100246.22;1735200;82;21014;-72
2021/09/09 10:43:01;;;;;;;;;;;;;;;24.66;41.07;100249.77;1729614;82;21089;-72
2021/09/09 10:45:37;;;;;;;12.45;7.08;;;;;;;24.83;40.30;100243.11;1723819;82;20136;-71
2021/09/09 10:48:17;;;;;;;8.50;6.80;;;;;;;24.83;40.30;100243.11;1751163;82;20979;-73
2021/09/09 10:51:12;;;;;;;10.43;6.85;;;;;;;24.84;39.67;100245.55;1749125;82;21521;-71
2021/09/09 10:53:54;;;;;;;9.43;6.53;;;;;;;24.87;39.70;100236.48;1734883;82;21545;-72
2021/09/09 10:56:24;;;;;;;9.75;7.15;;;;;;;24.97;40.34;100242.95;1725631;82;21529;-72
2021/09/09 10:59:21;;;;;;;8.88;6.65;;;;;;;24.99;39.83;100236.44;1738840;82;21011;-71
2021/09/09 11:01:45;;;;;;;9.90;6.83;;;;;;;25.04;39.01;100237.58;1749645;82;21023;-71
2021/09/09 11:04:27;;;;;;;8.28;6.85;;;;;;;24.99;38.80;100232.84;1734068;82;21501;-71
2021/09/09 11:06:54;;;;;;;8.83;7.10;;;;;;;24.98;39.32;100229.81;1725554;82;21609;-70
2021/09/09 11:09:22;;;;;;;10.28;6.87;;;;;;;24.99;39.81;100230.05;1739577;82;20972;-71
2021/09/09 11:12:01;;;;;;;15.72;7.47;;;;;;;25.03;39.58;100225.39;1741243;82;21138;-71
2021/09/09 11:14:27;;;;;;;10.90;6.67;;;;;;;25.06;38.53;100225.48;1742855;82;20980;-72
2021/09/09 11:16:55;;;;;;;14.10;7.08;;;;;;;24.99;38.50;100214.16;1728590;82;21086;-71
2021/09/09 11:19:22;;;;;;;9.15;6.83;;;;;;;24.92;38.07;100215.35;1725628;82;20964;-70
2021/09/09 11:21:51;;;;;;;14.00;6.62;;;;;;;24.90;38.49;100214.91;1748589;82;21055;-71
2021/09/09 11:24:17;;;;;;;14.50;6.15;;;;;;;24.94;38.04;100217.80;1750614;82;21383;-70
2021/09/09 11:26:49;;;;;;;7.22;5.80;;;;;;;24.97;38.67;100216.50;1751589;82;21034;-70